Time;durP1;ratioP1;P1;durP2;ratioP2;P2;SDS_P1;SDS_P2;PMS_P1;PMS_P2;Temp;Humidity;BMP_temperature;BMP_pressure;BME280_temperature;BME280_humidity;BME280_pressure;Samples;Min_cycle;Max_cycle;Signal;HPM_P1;HPM_P2
2022/08/11 00:00:46;;;;;;;4.63;2.10;;;;;;;13.96;95.78;102461.06;4972134;28;20534;-47
2022/08/11 00:03:13;;;;;;;3.35;1.88;;;;;;;14.11;95.74;102457.09;4971947;28;20576;-49
2022/08/11 00:05:45;;;;;;;2.08;1.90;;;;;;;13.87;95.24;102458.63;4972303;28;20253;-50
2022/08/11 00:08:20;;;;;;;3.20;2.38;;;;;;;14.03;95.52;102470.75;4971985;28;20335;-48
2022/08/11 00:10:55;;;;;;;3.30;2.10;;;;;;;14.08;95.25;102468.84;4972091;28;20193;-48
2022/08/11 00:13:22;;;;;;;3.60;2.13;;;;;;;13.85;94.58;102474.81;4971721;28;20355;-46
2022/08/11 00:15:48;;;;;;;4.78;2.17;;;;;;;13.95;95.00;102462.91;4970816;28;20207;-47
2022/08/11 00:18:15;;;;;;;4.72;1.85;;;;;;;13.91;94.83;102474.69;4971828;28;20576;-48
2022/08/11 00:20:44;;;;;;;2.42;1.80;;;;;;;14.06;95.02;102477.88;4971940;28;20211;-51
2022/08/11 00:23:12;;;;;;;2.80;1.85;;;;;;;13.98;94.63;102468.19;4971602;28;20206;-49
2022/08/11 00:25:43;;;;;;;2.50;2.00;;;;;;;13.93;94.46;102475.53;4971879;28;20248;-48
2022/08/11 00:28:38;;;;;;;6.05;1.98;;;;;;;13.87;94.78;102478.38;4971885;28;20189;-47
2022/08/11 00:31:08;;;;;;;3.83;2.05;;;;;;;13.75;95.13;102475.97;4971317;28;20251;-49
2022/08/11 00:33:38;;;;;;;2.30;1.90;;;;;;;13.79;95.83;102472.28;4970390;28;20205;-47
2022/08/11 00:36:06;;;;;;;5.97;2.05;;;;;;;13.64;95.74;102465.47;4971645;28;20174;-47
2022/08/11 00:38:35;;;;;;;8.57;3.45;;;;;;;13.49;96.54;102466.75;4971860;28;20228;-47
2022/08/11 00:41:10;;;;;;;5.18;2.17;;;;;;;13.43;97.41;102474.97;4971742;28;20301;-49
2022/08/11 00:43:50;;;;;;;3.08;2.28;;;;;;;13.43;98.08;102463.31;4971542;28;20217;-47
2022/08/11 00:46:24;;;;;;;3.97;1.90;;;;;;;13.45;98.45;102469.56;4972389;28;20170;-47
2022/08/11 00:49:05;;;;;;;3.10;2.10;;;;;;;13.53;98.88;102470.22;4975497;28;20566;-46
2022/08/11 00:51:55;;;;;;;4.55;2.50;;;;;;;13.33;99.18;102465.34;4975616;28;20267;-46
2022/08/11 00:54:59;;;;;;;4.05;2.42;;;;;;;13.41;99.67;102459.78;4975173;28;20180;-49
2022/08/11 00:57:42;;;;;;;3.50;2.20;;;;;;;13.53;99.87;102462.16;4974515;28;20490;-46
2022/08/11 01:00:15;;;;;;;2.53;2.10;;;;;;;13.54;99.35;102463.94;4974177;28;20238;-47
2022/08/11 01:03:02;;;;;;;3.15;2.35;;;;;;;13.55;98.64;102458.50;4975354;28;20214;-49
2022/08/11 01:05:43;;;;;;;3.20;2.33;;;;;;;13.33;98.50;102466.22;4975340;28;20633;-47
2022/08/11 01:08:39;;;;;;;3.08;2.47;;;;;;;13.37;98.79;102461.66;4975326;28;20603;-47
2022/08/11 01:11:26;;;;;;;2.90;2.35;;;;;;;13.31;98.93;102462.66;4974942;28;20178;-48
2022/08/11 01:14:38;;;;;;;3.95;2.63;;;;;;;13.19;99.66;102461.13;4975098;28;20194;-48
2022/08/11 01:17:41;;;;;;;3.78;2.60;;;;;;;13.19;100.00;102471.00;4974773;28;20174;-48
2022/08/11 01:20:31;;;;;;;4.82;2.63;;;;;;;13.31;100.00;102459.09;4974982;28;20556;-48
2022/08/11 01:23:42;;;;;;;5.13;2.47;;;;;;;13.18;100.00;102463.84;4979848;28;20206;-46
2022/08/11 01:26:17;;;;;;;5.10;2.72;;;;;;;13.08;100.00;102457.78;4978373;28;20194;-49
2022/08/11 01:29:04;;;;;;;3.58;2.28;;;;;;;13.12;100.00;102461.31;4993971;28;20271;-47
2022/08/11 01:32:07;;;;;;;2.13;1.95;;;;;;;13.33;100.00;102457.25;4994101;28;20178;-48
2022/08/11 01:35:18;;;;;;;2.33;2.13;;;;;;;13.33;99.83;102452.75;4994000;28;20216;-47
2022/08/11 01:38:22;;;;;;;3.55;2.70;;;;;;;13.17;99.15;102456.69;4994294;28;20512;-46
2022/08/11 01:44:37;;;;;;;2.53;2.33;;;;;;;13.16;99.97;102457.59;4993241;28;20207;-49
2022/08/11 01:50:20;;;;;;;2.55;2.17;;;;;;;13.19;99.50;102452.16;4993751;28;20327;-48
2022/08/11 01:53:07;;;;;;;2.03;1.90;;;;;;;13.24;99.54;102462.81;4993621;28;20197;-48
2022/08/11 01:55:39;;;;;;;4.63;2.40;;;;;;;13.06;99.27;102453.38;4993966;28;20260;-47
2022/08/11 01:58:20;;;;;;;4.32;2.38;;;;;;;13.04;99.26;102450.72;4993232;28;20170;-51
2022/08/11 02:01:24;;;;;;;2.53;2.33;;;;;;;13.08;99.37;102441.66;4993775;28;20540;-48
2022/08/11 02:04:14;;;;;;;2.30;2.20;;;;;;;13.22;99.27;102438.63;4991782;28;20229;-48
2022/08/11 02:07:03;;;;;;;2.47;2.15;;;;;;;13.23;99.03;102445.78;4992407;28;20165;-47
2022/08/11 02:09:43;;;;;;;2.33;2.13;;;;;;;13.25;98.54;102443.97;4993317;28;20200;-47
2022/08/11 02:12:20;;;;;;;2.90;2.20;;;;;;;13.21;98.53;102444.94;4993521;28;20193;-48
2022/08/11 02:15:05;;;;;;;2.58;2.20;;;;;;;13.20;98.16;102445.84;4993090;28;20200;-49
2022/08/11 02:17:56;;;;;;;3.35;2.20;;;;;;;13.15;97.93;102445.09;4993481;28;20315;-48
2022/08/11 02:23:52;;;;;;;2.50;2.30;;;;;;;12.82;97.45;102449.41;4993395;28;20262;-48
2022/08/11 02:26:38;;;;;;;3.85;2.33;;;;;;;12.72;97.51;102449.59;4991854;28;20200;-51
2022/08/11 02:29:10;;;;;;;2.80;2.20;;;;;;;12.82;98.18;102442.22;4992207;28;20178;-47
2022/08/11 02:34:55;;;;;;;2.25;1.98;;;;;;;12.95;97.96;102456.31;4993045;28;20545;-48
2022/08/11 02:37:32;;;;;;;2.35;2.13;;;;;;;12.97;97.70;102455.34;4991585;28;20197;-50
2022/08/11 02:40:05;;;;;;;3.00;2.10;;;;;;;12.91;97.51;102450.09;4992870;28;20161;-46
2022/08/11 02:42:39;;;;;;;4.93;2.50;;;;;;;12.72;97.20;102454.97;4992868;28;20689;-48
2022/08/11 02:45:45;;;;;;;4.50;2.85;;;;;;;12.62;97.55;102450.72;4992162;28;20185;-51
2022/08/11 02:51:45;;;;;;;3.75;2.30;;;;;;;12.48;99.47;102455.47;4992643;28;20260;-51
2022/08/11 02:54:25;;;;;;;2.28;2.17;;;;;;;12.44;99.94;102453.78;4992735;28;20180;-50
2022/08/11 02:57:03;;;;;;;2.33;2.13;;;;;;;12.51;100.00;102452.75;4992320;28;20184;-50
2022/08/11 03:00:06;;;;;;;2.60;2.40;;;;;;;12.51;100.00;102460.81;4993005;28;20169;-48
2022/08/11 03:02:40;;;;;;;2.63;2.00;;;;;;;12.62;100.00;102448.03;4992299;28;20216;-49
2022/08/11 03:05:10;;;;;;;3.40;2.15;;;;;;;12.67;100.00;102450.63;4992271;28;20176;-47
2022/08/11 03:07:38;;;;;;;2.53;2.15;;;;;;;12.67;100.00;102443.44;4992278;28;20299;-47
2022/08/11 03:10:08;;;;;;;2.63;2.40;;;;;;;12.70;99.79;102445.16;4991702;28;20188;-47
2022/08/11 03:18:32;;;;;;;2.28;2.10;;;;;;;12.54;98.80;102442.81;4992583;28;20172;-48
2022/08/11 03:21:24;;;;;;;2.40;2.20;;;;;;;12.69;98.25;102455.06;4989869;28;20653;-48
2022/08/11 03:23:55;;;;;;;2.10;1.90;;;;;;;12.74;98.01;102447.75;4988222;28;20220;-51
2022/08/11 03:26:37;;;;;;;2.20;2.05;;;;;;;12.73;97.72;102447.81;4985849;28;20213;-49
2022/08/11 03:29:10;;;;;;;2.35;2.15;;;;;;;12.75;97.62;102452.25;4992130;28;20216;-50
2022/08/11 03:31:45;;;;;;;2.17;2.03;;;;;;;12.70;97.52;102448.78;4992017;28;20629;-48
2022/08/11 03:34:22;;;;;;;1.80;1.70;;;;;;;12.68;97.13;102441.63;4991713;28;20187;-49
2022/08/11 03:37:05;;;;;;;1.90;1.80;;;;;;;12.65;97.13;102442.59;4991627;28;20181;-48
2022/08/11 03:39:39;;;;;;;3.15;2.17;;;;;;;12.63;97.07;102446.22;4987487;28;20255;-51
2022/08/11 03:42:13;;;;;;;2.70;1.90;;;;;;;12.68;97.34;102444.31;4975236;28;20209;-51
2022/08/11 03:44:59;;;;;;;1.80;1.70;;;;;;;12.62;96.99;102442.66;4982987;28;20195;-51
2022/08/11 03:47:37;;;;;;;2.00;1.90;;;;;;;12.51;96.80;102439.31;4991212;28;20228;-51
2022/08/11 03:50:29;;;;;;;3.63;2.50;;;;;;;12.37;97.25;102447.63;4991545;28;20173;-47
2022/08/11 03:53:17;;;;;;;2.83;2.20;;;;;;;12.31;97.92;102445.06;4990797;28;20565;-50
2022/08/11 03:56:10;;;;;;;2.58;2.38;;;;;;;12.23;98.70;102439.84;4991149;28;20173;-50
2022/08/11 03:59:16;;;;;;;2.60;2.25;;;;;;;12.17;99.45;102445.34;4991282;28;20165;-48
2022/08/11 04:02:02;;;;;;;2.92;2.50;;;;;;;12.19;99.98;102438.13;4991501;28;20188;-47
2022/08/11 04:04:58;;;;;;;3.75;2.22;;;;;;;12.18;100.00;102448.91;4990720;28;20166;-52
2022/08/11 04:07:26;;;;;;;3.58;2.50;;;;;;;12.14;100.00;102457.03;4991223;28;20196;-52
2022/08/11 04:10:01;;;;;;;5.03;2.60;;;;;;;12.24;100.00;102440.72;4990940;28;20181;-50
2022/08/11 04:12:44;;;;;;;2.58;2.38;;;;;;;12.18;100.00;102451.59;4991360;28;20199;-49
2022/08/11 04:18:41;;;;;;;3.85;2.08;;;;;;;12.41;100.00;102449.34;4991133;28;20173;-52
2022/08/11 04:21:18;;;;;;;2.30;2.03;;;;;;;12.38;100.00;102448.53;4991009;28;20583;-49
2022/08/11 04:24:06;;;;;;;2.88;2.30;;;;;;;12.34;99.80;102435.16;4990340;28;20213;-46
2022/08/11 04:26:49;;;;;;;3.78;2.60;;;;;;;12.40;100.00;102446.69;4971418;28;20239;-45
2022/08/11 04:29:48;;;;;;;2.70;2.50;;;;;;;12.48;100.00;102444.72;4971566;28;20247;-43
2022/08/11 04:32:32;;;;;;;2.20;2.10;;;;;;;12.53;99.96;102442.84;4971310;28;20235;-45
2022/08/11 04:35:04;;;;;;;2.03;1.90;;;;;;;12.62;99.86;102445.34;4969860;28;20182;-44
2022/08/11 04:37:59;;;;;;;2.70;2.38;;;;;;;12.65;99.51;102434.50;4971829;28;20190;-43
2022/08/11 04:40:27;;;;;;;2.88;2.47;;;;;;;12.70;99.23;102434.41;4971370;28;20313;-44
2022/08/11 04:43:19;;;;;;;2.95;2.75;;;;;;;12.78;99.36;102433.31;4971621;28;20301;-52
2022/08/11 04:46:22;;;;;;;6.57;2.88;;;;;;;12.89;99.32;102433.09;4970628;28;20542;-44
2022/08/11 05:05:29;;;;;;;3.95;2.75;;;;;;;14.35;97.36;102426.75;4971400;28;20221;-46
2022/08/11 05:07:33;;;;;;;3.42;2.47;;;;;;;14.64;95.74;102433.16;4971716;28;20254;-45
2022/08/11 05:10:35;;;;;;;2.50;2.30;;;;;;;14.83;93.89;102420.88;4971381;28;20205;-47
2022/08/11 05:35:54;;;;;;;2.38;2.00;;;;;;;15.65;92.60;102432.66;4994398;28;20169;-49
2022/08/11 05:57:55;;;;;;;3.97;2.22;;;;;;;17.67;89.86;102438.59;4994076;28;20701;-46
2022/08/11 06:00:23;;;;;;;3.22;2.22;;;;;;;17.92;88.68;102433.88;4994029;28;20197;-45
2022/08/11 06:02:54;;;;;;;4.75;2.40;;;;;;;18.32;88.49;102424.00;4993794;28;20224;-47
2022/08/11 06:05:36;;;;;;;4.95;2.20;;;;;;;18.66;87.46;102436.00;4993837;28;20292;-46
2022/08/11 06:08:06;;;;;;;4.43;1.98;;;;;;;19.05;86.58;102443.25;4993941;28;20193;-45
2022/08/11 06:10:40;;;;;;;5.25;2.20;;;;;;;19.44;85.88;102444.06;4993745;28;20244;-44
2022/08/11 06:13:07;;;;;;;3.50;1.75;;;;;;;19.72;84.28;102446.31;4993387;28;20196;-43
2022/08/11 06:15:43;;;;;;;3.00;2.03;;;;;;;19.97;82.87;102443.22;4993790;28;20166;-46
2022/08/11 06:18:11;;;;;;;2.38;2.17;;;;;;;20.13;81.87;102444.16;4993745;28;20169;-47
2022/08/11 06:21:08;;;;;;;3.47;1.75;;;;;;;20.39;80.48;102441.91;4993981;28;20177;-44
2022/08/11 06:23:35;;;;;;;3.08;1.80;;;;;;;20.65;79.03;102448.69;4988839;28;20248;-46
2022/08/11 06:26:00;;;;;;;6.70;2.05;;;;;;;20.83;78.04;102432.28;4976130;28;20550;-46
2022/08/11 06:28:32;;;;;;;5.00;1.80;;;;;;;21.16;74.61;102434.94;4974036;28;20189;-45
2022/08/11 06:30:58;;;;;;;2.75;1.50;;;;;;;21.33;73.07;102437.56;4974012;28;20213;-48
2022/08/11 06:33:42;;;;;;;7.25;1.73;;;;;;;21.54;72.31;102429.16;4973852;28;20205;-45
2022/08/11 06:36:45;;;;;;;4.57;1.80;;;;;;;21.67;71.78;102435.63;4972685;28;20601;-47
2022/08/11 06:39:10;;;;;;;3.80;1.60;;;;;;;21.73;69.46;102427.06;4975984;28;20221;-45
2022/08/11 06:41:51;;;;;;;2.45;1.58;;;;;;;21.68;68.88;102428.31;4992507;28;20594;-49
2022/08/11 06:44:41;;;;;;;1.60;1.50;;;;;;;21.91;68.65;102426.91;4991425;28;20560;-46
2022/08/11 06:47:11;;;;;;;4.50;1.63;;;;;;;21.94;69.58;102430.34;4989188;28;20200;-46
2022/08/11 06:52:31;;;;;;;3.40;1.42;;;;;;;22.53;67.48;102432.22;4992196;28;20205;-42
2022/08/11 06:55:07;;;;;;;5.28;1.73;;;;;;;22.66;66.88;102426.88;4992557;28;20172;-46
2022/08/11 07:00:27;;;;;;;5.88;1.70;;;;;;;22.62;65.88;102424.31;4992468;28;20162;-44
2022/08/11 07:03:02;;;;;;;7.53;1.95;;;;;;;23.02;64.30;102415.41;4992161;28;20227;-49
2022/08/11 07:05:43;;;;;;;2.00;1.73;;;;;;;23.19;62.97;102426.13;4992065;28;20161;-45
2022/08/11 07:28:54;;;;;;;3.58;1.60;;;;;;;23.48;58.30;102423.28;4991895;28;20516;-42
2022/08/11 07:28:54;;;;;;;3.30;1.45;;;;;;;22.76;69.24;102411.63;4972366;28;20174;-44
2022/08/11 07:31:27;;;;;;;4.18;1.65;;;;;;;22.81;65.70;102429.47;4972606;28;20266;-49
2022/08/11 07:34:01;;;;;;;1.95;1.55;;;;;;;23.23;58.82;102411.25;4972109;28;20305;-42
2022/08/11 07:36:30;;;;;;;2.25;1.45;;;;;;;24.19;57.24;102391.06;4972742;28;20583;-46
2022/08/11 07:38:57;;;;;;;2.50;1.40;;;;;;;24.35;54.99;102407.28;4972190;28;20176;-44
2022/08/11 07:41:24;;;;;;;2.60;1.30;;;;;;;24.61;53.91;102398.06;4972148;28;20669;-46
2022/08/11 07:43:53;;;;;;;3.25;1.63;;;;;;;24.87;53.96;102403.50;4972465;28;20206;-45
2022/08/11 07:54:39;;;;;;;9.85;2.10;;;;;;;22.78;68.87;102409.66;4972392;28;20229;-48
2022/08/11 08:19:14;;;;;;;3.65;1.85;;;;;;;24.70;60.09;102412.09;4972387;28;20187;-44
2022/08/11 08:21:40;;;;;;;7.78;1.73;;;;;;;24.62;58.43;102407.16;4970378;28;20188;-49
2022/08/11 08:24:06;;;;;;;2.50;2.08;;;;;;;24.99;59.60;102413.56;4971571;28;20205;-49
2022/08/11 08:32:20;;;;;;;3.50;1.90;;;;;;;24.25;63.19;102415.28;4971789;28;20197;-46
2022/08/11 08:34:49;;;;;;;5.13;2.13;;;;;;;24.52;64.13;102417.94;4971990;28;20174;-49
2022/08/11 08:37:17;;;;;;;4.25;2.20;;;;;;;24.54;64.12;102406.88;4972432;28;20181;-51
2022/08/11 08:39:45;;;;;;;6.43;2.42;;;;;;;23.90;67.03;102417.75;4970534;28;20610;-48
2022/08/11 08:42:15;;;;;;;2.80;1.73;;;;;;;23.74;62.88;102402.34;4971876;28;20693;-51
2022/08/11 08:44:49;;;;;;;4.45;2.00;;;;;;;23.87;62.53;102412.50;4971549;28;20189;-52
2022/08/11 08:47:18;;;;;;;4.18;1.88;;;;;;;23.87;62.16;102418.84;4971841;28;20191;-48
2022/08/11 08:49:48;;;;;;;4.72;1.70;;;;;;;23.72;64.20;102408.91;4971990;28;20181;-49
2022/08/11 08:52:17;;;;;;;2.85;1.77;;;;;;;23.64;63.28;102404.84;4970400;28;20292;-49
2022/08/11 08:54:47;;;;;;;1.80;1.70;;;;;;;23.76;62.94;102413.22;4969985;28;20178;-49
2022/08/11 08:57:16;;;;;;;3.50;1.80;;;;;;;23.69;62.28;102403.66;4970558;28;20185;-49
2022/08/11 08:59:46;;;;;;;4.45;1.52;;;;;;;23.73;61.29;102406.09;4971906;28;20178;-47
2022/08/11 09:02:12;;;;;;;7.60;2.10;;;;;;;23.64;60.36;102390.31;4971549;28;20280;-49
2022/08/11 09:04:40;;;;;;;2.47;2.00;;;;;;;23.90;61.01;102402.22;4969825;28;20254;-48
2022/08/11 09:07:14;;;;;;;9.18;1.80;;;;;;;24.26;60.78;102389.63;4972009;28;20200;-48
2022/08/11 09:09:43;;;;;;;4.15;1.90;;;;;;;24.16;59.41;102391.25;4975278;28;20169;-48
2022/08/11 09:12:11;;;;;;;4.60;1.92;;;;;;;24.11;57.74;102382.50;4974158;28;20198;-48
2022/08/11 09:17:26;;;;;;;2.75;1.83;;;;;;;24.54;56.99;102390.41;4975191;28;20211;-47
2022/08/11 09:19:59;;;;;;;4.18;2.03;;;;;;;24.22;58.63;102394.44;4974651;28;20209;-48
2022/08/11 09:27:56;;;;;;;4.75;1.80;;;;;;;24.24;61.73;102384.25;4975014;28;20201;-49
2022/08/11 09:30:27;;;;;;;3.95;1.65;;;;;;;24.11;63.00;102388.00;4974641;28;20177;-49
2022/08/11 09:32:59;;;;;;;2.70;1.40;;;;;;;23.74;63.84;102393.28;4957327;28;20221;-48
2022/08/11 09:35:30;;;;;;;1.85;1.45;;;;;;;23.47;65.65;102388.72;4974382;28;20228;-46
2022/08/11 09:40:50;;;;;;;2.65;1.60;;;;;;;23.65;66.39;102381.97;4974113;28;20176;-46
2022/08/11 09:46:04;;;;;;;5.78;1.20;;;;;;;23.43;66.66;102379.81;4974372;28;20217;-48
2022/08/11 09:48:34;;;;;;;5.22;1.60;;;;;;;23.73;65.97;102375.97;4974008;28;20200;-47
2022/08/11 09:51:01;;;;;;;2.72;1.30;;;;;;;23.53;66.14;102373.75;4973921;28;20249;-48
2022/08/11 09:53:33;;;;;;;3.38;1.52;;;;;;;23.55;65.69;102377.22;4973324;28;20182;-47
2022/08/11 09:58:12;;;;;;;1.88;1.60;;;;;;;23.76;65.54;102375.78;4973874;28;20798;-47
2022/08/11 09:58:47;;;;;;;1.65;1.55;;;;;;;23.35;68.18;102373.13;4973941;28;20184;-49
2022/08/11 10:01:25;;;;;;;4.80;1.38;;;;;;;23.17;69.42;102372.50;4973559;28;20186;-50
2022/08/11 10:03:59;;;;;;;2.03;1.60;;;;;;;23.52;69.80;102378.31;4973243;28;20217;-48
2022/08/11 10:09:12;;;;;;;2.55;1.60;;;;;;;23.20;68.34;102361.38;4972438;28;20169;-48
2022/08/11 10:11:39;;;;;;;3.80;1.98;;;;;;;23.18;67.57;102368.81;4973787;28;20162;-47
2022/08/11 10:16:52;;;;;;;6.60;1.55;;;;;;;23.07;67.96;102366.81;4973701;28;20327;-47
2022/08/11 10:19:20;;;;;;;4.00;1.67;;;;;;;22.97;69.31;102363.75;4973248;28;20174;-48
2022/08/11 10:26:49;;;;;;;2.70;1.52;;;;;;;22.85;69.52;102370.06;4972359;28;20240;-48
2022/08/11 10:27:22;;;;;;;3.97;1.42;;;;;;;23.03;71.40;102359.78;4973297;28;20193;-49
2022/08/11 10:35:20;;;;;;;5.72;1.83;;;;;;;23.24;71.58;102350.13;4972818;28;20244;-50
2022/08/11 10:37:46;;;;;;;4.15;1.35;;;;;;;23.45;71.14;102334.09;4972105;28;20232;-49
2022/08/11 10:40:21;;;;;;;2.50;1.48;;;;;;;23.45;70.62;102334.09;4973369;28;20680;-48
2022/08/11 10:43:05;;;;;;;7.28;1.70;;;;;;;23.31;70.63;102339.66;4972586;28;20212;-48
2022/08/11 10:48:25;;;;;;;4.57;1.80;;;;;;;23.50;68.32;102335.63;4972866;28;20177;-48
2022/08/11 10:59:13;;;;;;;2.38;1.50;;;;;;;25.43;61.50;102316.06;4972803;28;20169;-45
2022/08/11 11:01:42;;;;;;;4.47;1.50;;;;;;;25.70;59.16;102317.63;4972989;28;20178;-47
2022/08/11 11:04:14;;;;;;;2.55;1.33;;;;;;;25.77;58.18;102307.91;4972103;28;20278;-45
2022/08/11 11:06:43;;;;;;;3.30;1.63;;;;;;;25.97;57.78;102313.72;4972937;28;20169;-45
2022/08/11 11:09:17;;;;;;;1.90;1.50;;;;;;;26.01;55.97;102316.09;4972834;28;20673;-45
2022/08/11 11:20:16;;;;;;;4.13;1.50;;;;;;;25.95;51.91;102301.97;4990743;28;20564;-45
2022/08/11 11:22:47;;;;;;;3.38;1.20;;;;;;;26.03;51.14;102300.38;4973965;28;20197;-46
2022/08/11 11:25:19;;;;;;;6.32;1.60;;;;;;;26.56;50.78;102299.75;4991977;28;20173;-46
2022/08/11 11:27:58;;;;;;;4.30;1.35;;;;;;;26.77;48.06;102305.34;4992016;28;20184;-46
2022/08/11 11:30:34;;;;;;;5.40;1.60;;;;;;;26.88;49.02;102307.19;4991598;28;20248;-46
2022/08/11 11:33:17;;;;;;;3.25;1.20;;;;;;;26.72;50.80;102307.63;4991587;28;20664;-45
2022/08/11 11:36:27;;;;;;;2.55;1.40;;;;;;;27.32;48.44;102295.16;4992110;28;20207;-46
2022/08/11 11:38:55;;;;;;;3.15;1.50;;;;;;;27.49;48.26;102292.84;4991075;28;20208;-47
2022/08/11 11:41:25;;;;;;;10.68;1.50;;;;;;;27.29;47.68;102291.81;4990896;28;20184;-46
2022/08/11 11:43:56;;;;;;;5.25;1.48;;;;;;;27.98;46.55;102290.41;4991319;28;20208;-47
2022/08/11 11:46:25;;;;;;;3.83;1.48;;;;;;;27.18;47.48;102295.47;4991782;28;20185;-46
2022/08/11 11:48:52;;;;;;;1.85;1.20;;;;;;;27.30;48.35;102294.41;4992369;28;20169;-45
2022/08/11 11:51:19;;;;;;;2.75;1.48;;;;;;;27.63;47.94;102295.22;4991639;28;20165;-46
2022/08/11 11:53:46;;;;;;;1.60;1.50;;;;;;;27.59;48.14;102301.16;4991626;28;20224;-46
2022/08/11 11:56:14;;;;;;;7.18;1.40;;;;;;;26.91;48.81;102302.28;4991486;28;20664;-45
2022/08/11 12:01:26;;;;;;;2.90;1.48;;;;;;;26.94;49.12;102306.69;4991914;28;20181;-46
2022/08/11 12:03:53;;;;;;;5.10;1.55;;;;;;;26.39;50.42;102292.00;4990939;28;20318;-47
2022/08/11 12:06:21;;;;;;;1.77;1.17;;;;;;;27.27;48.79;102289.19;4991600;28;20165;-47
2022/08/11 12:08:50;;;;;;;5.68;1.50;;;;;;;28.05;47.97;102291.59;4991261;28;20171;-46
2022/08/11 12:14:05;;;;;;;2.03;1.33;;;;;;;28.01;47.47;102285.50;4991019;28;20288;-47
2022/08/11 12:16:34;;;;;;;2.90;1.30;;;;;;;27.86;47.07;102282.22;4991442;28;20185;-47
2022/08/11 12:19:01;;;;;;;2.10;1.35;;;;;;;26.49;48.20;102285.59;4991054;28;20173;-44
2022/08/11 12:21:28;;;;;;;3.90;1.10;;;;;;;26.60;48.64;102283.88;4991300;28;20554;-44
2022/08/11 12:29:18;;;;;;;3.92;1.27;;;;;;;27.26;47.96;102283.81;4991427;28;20240;-46
2022/08/11 12:31:45;;;;;;;8.73;1.70;;;;;;;26.55;48.76;102284.25;4990042;28;20185;-46
2022/08/11 12:34:13;;;;;;;4.20;1.20;;;;;;;26.35;48.43;102279.50;4990903;28;20203;-47
2022/08/11 12:36:42;;;;;;;1.80;0.98;;;;;;;26.91;47.63;102273.91;4991154;28;20213;-47
2022/08/11 12:39:19;;;;;;;4.80;1.25;;;;;;;26.63;47.92;102272.63;4991648;28;20512;-47
2022/08/11 12:47:18;;;;;;;3.58;1.20;;;;;;;26.51;47.39;102269.88;4995204;28;20601;-47
2022/08/11 12:52:42;;;;;;;9.82;1.35;;;;;;;27.10;46.22;102268.59;4994858;28;20616;-47
2022/08/11 12:55:12;;;;;;;4.50;1.20;;;;;;;27.51;45.44;102255.03;4994956;28;20658;-45
2022/08/11 13:06:04;;;;;;;1.75;1.17;;;;;;;27.47;44.92;102248.06;4995016;28;20211;-45
2022/08/11 13:08:34;;;;;;;3.45;1.20;;;;;;;26.91;45.12;102247.28;4995091;28;20196;-46
2022/08/11 13:13:47;;;;;;;2.35;1.05;;;;;;;26.74;45.56;102245.09;4994443;28;20208;-45
2022/08/11 13:16:13;;;;;;;3.92;1.27;;;;;;;26.68;45.54;102248.38;4994624;28;20633;-47
2022/08/11 13:18:41;;;;;;;1.90;1.10;;;;;;;27.01;45.34;102246.50;4994982;28;20192;-46
2022/08/11 13:21:09;;;;;;;6.03;1.20;;;;;;;27.13;45.85;102242.69;4994522;28;20264;-47
2022/08/11 13:23:36;;;;;;;5.35;1.08;;;;;;;26.90;45.73;102241.94;4994291;28;20205;-46
2022/08/11 13:26:02;;;;;;;4.10;1.10;;;;;;;26.91;45.60;102241.78;4976524;28;20225;-48
2022/08/11 13:28:28;;;;;;;3.45;1.20;;;;;;;27.26;45.53;102237.88;4975081;28;20185;-46
2022/08/11 13:31:13;;;;;;;2.38;1.17;;;;;;;26.54;45.49;102243.13;4975285;28;20668;-47
2022/08/11 13:33:48;;;;;;;3.10;1.42;;;;;;;26.80;46.18;102241.81;4974513;28;20210;-45
2022/08/11 13:36:18;;;;;;;5.38;1.30;;;;;;;26.39;45.96;102232.44;4974909;28;20181;-46
2022/08/11 13:38:44;;;;;;;2.50;1.10;;;;;;;26.82;45.41;102241.69;4974987;28;20603;-45
2022/08/11 13:43:55;;;;;;;1.48;1.00;;;;;;;26.98;44.39;102236.63;4974001;28;20241;-45
2022/08/11 13:46:23;;;;;;;3.80;1.00;;;;;;;27.15;44.06;102234.31;4974915;28;20181;-45
2022/08/11 13:48:54;;;;;;;2.40;1.13;;;;;;;26.92;43.13;102238.03;4974754;28;20188;-45
2022/08/11 13:51:34;;;;;;;3.40;1.20;;;;;;;26.85;43.70;102239.56;4974763;28;20617;-45
2022/08/11 13:54:09;;;;;;;3.67;1.10;;;;;;;27.21;42.90;102236.53;4973635;28;20244;-44
2022/08/11 13:56:38;;;;;;;1.83;0.80;;;;;;;27.06;43.51;102234.09;4974706;28;20184;-46
2022/08/11 13:59:06;;;;;;;3.17;1.10;;;;;;;26.79;42.58;102233.72;4974616;28;20181;-46
2022/08/11 14:01:35;;;;;;;2.60;0.90;;;;;;;26.40;43.57;102231.41;4974423;28;20186;-45
2022/08/11 14:04:11;;;;;;;8.05;0.98;;;;;;;26.21;43.89;102217.44;4973910;28;20241;-45
2022/08/11 14:06:45;;;;;;;5.43;1.00;;;;;;;26.07;44.85;102219.47;4974290;28;20335;-47
2022/08/11 14:09:12;;;;;;;2.45;0.90;;;;;;;26.13;44.50;102214.47;4974574;28;20184;-47
2022/08/11 14:14:32;;;;;;;2.35;1.00;;;;;;;26.57;43.92;102219.03;4974171;28;20276;-46
2022/08/11 14:17:03;;;;;;;8.55;1.20;;;;;;;26.47;43.70;102220.78;4973732;28;20180;-47
2022/08/11 14:19:33;;;;;;;5.15;0.98;;;;;;;26.71;43.23;102215.13;4974329;28;20194;-46
2022/08/11 14:22:08;;;;;;;2.50;1.05;;;;;;;26.70;43.15;102214.25;4974056;28;20610;-46
2022/08/11 14:24:39;;;;;;;2.55;1.10;;;;;;;26.57;43.36;102210.78;4979422;28;20212;-46
2022/08/11 14:27:11;;;;;;;1.98;0.88;;;;;;;26.86;42.93;102205.56;4993449;28;20260;-46
2022/08/11 14:29:40;;;;;;;4.20;0.95;;;;;;;26.99;42.56;102210.88;4993390;28;20537;-47
2022/08/11 14:32:08;;;;;;;3.55;1.20;;;;;;;26.41;43.28;102211.16;4993712;28;20197;-46
2022/08/11 14:34:37;;;;;;;1.20;1.00;;;;;;;26.54;43.26;102202.75;4992713;28;20589;-46
2022/08/11 14:37:07;;;;;;;3.67;1.00;;;;;;;26.39;43.42;102201.28;4993297;28;20699;-48
2022/08/11 14:47:03;;;;;;;2.92;1.00;;;;;;;26.49;43.28;102203.16;4993337;28;20168;-46
2022/08/11 14:48:36;;;;;;;4.50;0.93;;;;;;;26.43;43.69;102198.16;4974079;28;20197;-46
2022/08/11 14:51:04;;;;;;;4.10;0.82;;;;;;;26.28;42.91;102197.59;4992838;28;20199;-45
2022/08/11 14:53:31;;;;;;;7.95;1.20;;;;;;;26.36;43.56;102183.19;4992721;28;20546;-46
2022/08/11 14:58:42;;;;;;;10.73;1.20;;;;;;;26.08;43.08;102196.47;4992893;28;20272;-49
2022/08/11 15:03:08;;;;;;;3.40;0.90;;;;;;;26.26;43.06;102187.72;4993365;28;20189;-48
2022/08/11 15:03:55;;;;;;;4.20;1.17;;;;;;;26.19;43.15;102186.47;4992201;28;20252;-49
2022/08/11 15:06:20;;;;;;;5.32;1.00;;;;;;;26.44;43.43;102182.56;4991824;28;20227;-48
2022/08/11 15:08:55;;;;;;;6.72;1.08;;;;;;;26.45;43.72;102182.41;4992462;28;20173;-49
2022/08/11 15:14:08;;;;;;;2.17;1.00;;;;;;;26.25;42.91;102183.22;4991925;28;20288;-47
2022/08/11 15:19:26;;;;;;;6.10;1.33;;;;;;;26.06;43.09;102178.38;4992752;28;20544;-48
2022/08/11 15:24:37;;;;;;;1.52;0.90;;;;;;;25.95;44.41;102170.16;4991748;28;20208;-50
2022/08/11 15:38:14;;;;;;;2.97;1.10;;;;;;;25.73;44.84;102171.88;4991894;28;20176;-45
2022/08/11 15:46:40;;;;;;;1.65;0.90;;;;;;;25.32;45.60;102165.13;4990589;28;20188;-48
2022/08/11 15:49:21;;;;;;;1.50;1.05;;;;;;;25.40;46.07;102157.16;4989741;28;20201;-48
2022/08/11 15:52:15;;;;;;;4.55;1.00;;;;;;;25.46;45.51;102151.16;4991847;28;20495;-47
2022/08/11 15:54:42;;;;;;;4.32;1.10;;;;;;;25.48;45.47;102153.81;4990971;28;20188;-47
2022/08/11 16:04:09;;;;;;;10.18;1.20;;;;;;;25.48;45.03;102151.06;4990388;28;20320;-46
2022/08/11 16:05:23;;;;;;;3.08;0.95;;;;;;;25.36;46.48;102152.91;4991229;28;20176;-47
2022/08/11 16:07:51;;;;;;;2.40;1.10;;;;;;;25.23;46.20;102146.66;4991721;28;20540;-48
2022/08/11 16:10:22;;;;;;;1.30;0.93;;;;;;;25.24;46.42;102148.41;4991215;28;20267;-49
2022/08/11 16:18:39;;;;;;;3.70;1.00;;;;;;;25.41;46.50;102152.56;4991348;28;20153;-46
2022/08/11 16:21:14;;;;;;;2.03;0.90;;;;;;;25.06;46.93;102142.50;4991763;28;20169;-49
2022/08/11 16:23:44;;;;;;;5.57;1.20;;;;;;;24.88;47.12;102142.94;4991003;28;20208;-49
2022/08/11 16:26:11;;;;;;;3.15;1.13;;;;;;;25.00;47.12;102145.72;4972577;28;20189;-47
2022/08/11 16:28:39;;;;;;;1.55;1.02;;;;;;;25.15;46.91;102139.00;4971713;28;20162;-50
2022/08/11 16:31:09;;;;;;;4.68;1.00;;;;;;;24.93;46.42;102142.56;4971742;28;20253;-49
2022/08/11 16:33:39;;;;;;;5.45;1.42;;;;;;;25.09;46.19;102139.50;4971470;28;20193;-51